createdAt,value
2022-12-29T00:01:01.810Z,5.70
2022-12-29T00:03:29.342Z,5.80
2022-12-29T00:05:58.474Z,5.80
2022-12-29T00:08:40.604Z,5.90
2022-12-29T00:11:10.576Z,5.80
2022-12-29T00:13:56.509Z,5.80
2022-12-29T00:16:24.018Z,5.80
2022-12-29T00:18:51.464Z,5.70
2022-12-29T00:21:39.962Z,5.80
2022-12-29T00:24:27.387Z,5.80
2022-12-29T00:27:22.651Z,5.80
2022-12-29T00:30:08.973Z,5.80
2022-12-29T00:32:54.934Z,5.80
2022-12-29T00:35:32.483Z,5.80
2022-12-29T00:38:24.599Z,5.80
2022-12-29T00:41:10.250Z,5.80
2022-12-29T00:43:55.946Z,5.80
2022-12-29T00:46:23.133Z,5.70
2022-12-29T00:49:08.899Z,5.70
2022-12-29T00:51:36.025Z,5.70
2022-12-29T00:54:03.852Z,5.70
2022-12-29T00:56:30.979Z,5.70
2022-12-29T00:59:11.269Z,5.70
2022-12-29T01:01:39.954Z,5.70
2022-12-29T01:04:08.048Z,5.80
2022-12-29T01:06:37.008Z,5.80
2022-12-29T01:09:23.973Z,5.80
2022-12-29T01:11:51.536Z,5.80
2022-12-29T01:14:19.934Z,5.80
2022-12-29T01:16:47.527Z,5.80
2022-12-29T01:19:16.179Z,5.80
2022-12-29T01:21:46.198Z,5.80
2022-12-29T01:24:15.079Z,5.80
2022-12-29T01:26:42.532Z,5.80
2022-12-29T01:29:10.189Z,5.80
2022-12-29T01:31:37.829Z,5.80
2022-12-29T01:34:05.965Z,5.80
2022-12-29T01:36:33.537Z,5.70
2022-12-29T01:39:01.687Z,5.80
2022-12-29T01:41:28.893Z,5.80
2022-12-29T01:44:00.224Z,5.90
2022-12-29T01:46:32.690Z,5.90
2022-12-29T01:49:09.297Z,5.90
2022-12-29T01:51:43.674Z,5.90
2022-12-29T01:54:19.257Z,6.00
2022-12-29T01:56:47.463Z,6.00
2022-12-29T01:59:23.627Z,6.00
2022-12-29T02:01:51.870Z,6.00
2022-12-29T02:04:19.524Z,6.00
2022-12-29T02:06:52.878Z,6.00
2022-12-29T02:09:20.739Z,6.00
2022-12-29T02:11:51.891Z,6.00
2022-12-29T02:14:19.557Z,6.00
2022-12-29T02:17:12.515Z,5.90
2022-12-29T02:20:01.598Z,5.90
2022-12-29T02:23:03.091Z,6.00
2022-12-29T02:25:51.848Z,6.00
2022-12-29T02:28:47.038Z,6.00
2022-12-29T02:31:14.462Z,6.00
2022-12-29T02:33:44.287Z,6.00
2022-12-29T02:36:34.024Z,5.90
2022-12-29T02:39:28.492Z,5.80
2022-12-29T02:42:10.658Z,5.80
2022-12-29T02:44:59.493Z,5.80
2022-12-29T02:47:47.844Z,5.80
2022-12-29T02:50:26.247Z,5.70
2022-12-29T02:53:00.207Z,5.80
2022-12-29T02:55:27.620Z,5.80
2022-12-29T02:58:10.168Z,5.80
2022-12-29T03:00:49.116Z,5.80
2022-12-29T03:03:28.988Z,5.80
2022-12-29T03:06:11.979Z,5.80
2022-12-29T03:09:03.935Z,5.80
2022-12-29T03:11:57.827Z,5.70
2022-12-29T03:14:52.614Z,5.70
2022-12-29T03:17:30.653Z,5.70
2022-12-29T03:20:07.395Z,5.70
2022-12-29T03:22:42.576Z,5.70
2022-12-29T03:25:41.021Z,5.70
2022-12-29T03:28:16.552Z,5.70
2022-12-29T03:30:48.374Z,5.80
2022-12-29T03:33:29.727Z,5.80
2022-12-29T03:36:04.148Z,5.80
2022-12-29T03:38:46.236Z,5.90
2022-12-29T03:41:21.444Z,5.80
2022-12-29T03:43:48.916Z,5.80
2022-12-29T03:46:16.428Z,5.90
2022-12-29T03:48:43.689Z,5.80
2022-12-29T03:51:11.405Z,5.80
2022-12-29T03:53:38.546Z,5.80
2022-12-29T03:56:06.214Z,5.90
2022-12-29T03:58:34.251Z,5.90
2022-12-29T04:01:09.888Z,5.90
2022-12-29T04:03:39.509Z,5.90
2022-12-29T04:06:07.192Z,6.00
2022-12-29T04:08:40.745Z,5.90
2022-12-29T04:11:08.163Z,5.90
2022-12-29T04:13:35.427Z,5.80
2022-12-29T04:16:03.062Z,5.80
2022-12-29T04:18:30.170Z,5.90
2022-12-29T04:21:00.716Z,5.90
2022-12-29T04:23:29.775Z,6.00
2022-12-29T04:25:59.675Z,6.00
2022-12-29T04:28:28.281Z,6.10
2022-12-29T04:30:58.698Z,6.10
2022-12-29T04:33:34.528Z,6.10
2022-12-29T04:36:02.582Z,6.10
2022-12-29T04:38:29.717Z,6.00
2022-12-29T04:41:00.719Z,6.00
2022-12-29T04:43:29.215Z,6.00
2022-12-29T04:46:07.397Z,5.90
2022-12-29T04:48:57.975Z,5.80
2022-12-29T04:51:43.364Z,5.80
2022-12-29T04:54:12.436Z,5.80
2022-12-29T04:56:40.368Z,5.80
2022-12-29T04:59:08.098Z,5.90
2022-12-29T05:01:35.708Z,6.00
2022-12-29T05:04:03.209Z,5.90
2022-12-29T05:06:30.669Z,5.90
2022-12-29T05:08:57.839Z,6.00
2022-12-29T05:11:25.715Z,6.00
2022-12-29T05:13:54.620Z,6.00
2022-12-29T05:16:22.763Z,6.10
2022-12-29T05:18:50.053Z,6.10
2022-12-29T05:21:17.895Z,6.20
2022-12-29T05:23:45.616Z,6.20
2022-12-29T05:26:13.242Z,6.20
2022-12-29T05:28:54.927Z,6.30
2022-12-29T05:31:23.624Z,6.30
2022-12-29T05:33:50.879Z,6.30
2022-12-29T05:36:18.811Z,6.30
2022-12-29T05:38:50.284Z,6.40
2022-12-29T05:41:18.820Z,6.40
2022-12-29T05:44:01.728Z,6.30
2022-12-29T05:46:29.494Z,6.40
2022-12-29T05:49:09.440Z,6.40
2022-12-29T05:51:53.566Z,6.40
2022-12-29T05:54:20.756Z,6.40
2022-12-29T05:56:48.172Z,6.40
2022-12-29T05:59:15.576Z,6.40
2022-12-29T06:01:43.709Z,6.40
2022-12-29T06:04:11.073Z,6.40
2022-12-29T06:06:39.837Z,6.40
2022-12-29T06:09:11.907Z,6.40
2022-12-29T06:11:39.331Z,6.50
2022-12-29T06:14:06.564Z,6.50
2022-12-29T06:16:34.676Z,6.50
2022-12-29T06:19:04.556Z,6.50
2022-12-29T06:21:32.438Z,6.50
2022-12-29T06:24:01.652Z,6.60
2022-12-29T06:26:29.150Z,6.60
2022-12-29T06:28:57.276Z,6.60
2022-12-29T06:31:25.025Z,6.60
2022-12-29T06:33:52.211Z,6.60
2022-12-29T06:36:19.632Z,6.60
2022-12-29T06:38:47.016Z,6.60
2022-12-29T06:41:14.423Z,6.60
2022-12-29T06:44:01.670Z,6.40
2022-12-29T06:46:51.395Z,6.20
2022-12-29T06:49:19.605Z,6.00
2022-12-29T06:51:47.412Z,6.10
2022-12-29T06:54:14.574Z,6.20
2022-12-29T06:56:41.958Z,6.30
2022-12-29T06:59:10.613Z,6.30
2022-12-29T07:01:38.222Z,6.40
2022-12-29T07:04:05.627Z,6.50
2022-12-29T07:06:33.008Z,6.50
2022-12-29T07:09:00.177Z,6.50
2022-12-29T07:11:27.596Z,6.60
2022-12-29T07:13:54.687Z,6.60
2022-12-29T07:16:22.109Z,6.70
2022-12-29T07:18:49.372Z,6.70
2022-12-29T07:21:17.388Z,6.70
2022-12-29T07:23:44.829Z,6.80
2022-12-29T07:26:14.403Z,6.70
2022-12-29T07:28:42.848Z,6.80
2022-12-29T07:31:17.914Z,6.80
2022-12-29T07:33:46.156Z,6.90
2022-12-29T07:36:13.955Z,6.90
2022-12-29T07:38:41.536Z,6.90
2022-12-29T07:41:09.238Z,6.90
2022-12-29T07:43:36.688Z,6.90
2022-12-29T07:46:56.612Z,6.90
2022-12-29T07:49:09.538Z,7.00
2022-12-29T07:51:36.887Z,7.00
2022-12-29T07:54:04.102Z,7.10
2022-12-29T07:56:31.486Z,7.10
2022-12-29T07:58:58.640Z,7.10
2022-12-29T08:01:26.241Z,7.20
2022-12-29T08:03:57.265Z,7.30
2022-12-29T08:06:25.411Z,7.30
2022-12-29T08:08:52.546Z,7.30
2022-12-29T08:11:20.061Z,7.30
2022-12-29T08:13:47.192Z,7.30
2022-12-29T08:16:14.713Z,7.30
2022-12-29T08:18:41.997Z,7.30
2022-12-29T08:21:09.546Z,7.40
2022-12-29T08:23:36.735Z,7.40
2022-12-29T08:26:05.877Z,7.40
2022-12-29T08:28:34.061Z,7.40
2022-12-29T08:31:02.822Z,7.40
2022-12-29T08:33:30.472Z,7.40
2022-12-29T08:36:02.210Z,7.40
2022-12-29T08:38:30.046Z,7.50
2022-12-29T08:40:58.716Z,7.60
2022-12-29T08:43:26.275Z,7.60
2022-12-29T08:45:54.235Z,7.60
2022-12-29T08:48:23.169Z,7.60
2022-12-29T08:50:51.130Z,7.60
2022-12-29T08:53:19.280Z,7.50
2022-12-29T08:55:48.147Z,7.60
2022-12-29T08:58:17.527Z,7.70
2022-12-29T09:00:45.429Z,7.70
2022-12-29T09:03:12.791Z,7.70
2022-12-29T09:05:40.382Z,7.70
2022-12-29T09:08:07.565Z,7.80
2022-12-29T09:10:34.978Z,7.90
2022-12-29T09:13:02.121Z,8.10
2022-12-29T09:15:29.495Z,8.20
2022-12-29T09:17:56.717Z,8.30
2022-12-29T09:20:24.154Z,8.30
2022-12-29T09:22:51.359Z,8.50
2022-12-29T09:25:18.911Z,8.50
2022-12-29T09:27:46.102Z,8.60
2022-12-29T09:30:15.464Z,8.50
2022-12-29T09:32:45.234Z,8.60
2022-12-29T09:35:15.143Z,8.50
2022-12-29T09:37:42.760Z,8.50
2022-12-29T09:40:32.064Z,8.50
2022-12-29T09:43:51.750Z,8.60
2022-12-29T09:46:28.782Z,8.70
2022-12-29T09:49:07.611Z,8.80
2022-12-29T09:51:38.500Z,8.90
2022-12-29T09:54:34.274Z,9.00
2022-12-29T09:57:02.375Z,9.10
2022-12-29T09:59:41.827Z,9.20
2022-12-29T10:02:43.757Z,9.30
2022-12-29T10:05:35.600Z,9.50
2022-12-29T10:08:26.665Z,9.50
2022-12-29T10:11:35.850Z,9.40
2022-12-29T10:14:44.967Z,9.50
2022-12-29T10:17:32.922Z,9.50
2022-12-29T10:20:27.527Z,9.60
2022-12-29T10:23:20.503Z,9.60
2022-12-29T10:25:48.343Z,9.60
2022-12-29T10:28:36.541Z,9.70
2022-12-29T10:31:10.147Z,9.70
2022-12-29T10:33:41.726Z,9.60
2022-12-29T10:36:19.159Z,9.60
2022-12-29T10:38:58.388Z,9.50
2022-12-29T10:41:45.655Z,9.50
2022-12-29T10:44:18.016Z,9.40
2022-12-29T10:46:55.498Z,9.30
2022-12-29T10:49:23.255Z,9.20
2022-12-29T10:51:53.032Z,9.40
2022-12-29T10:54:29.746Z,9.50
2022-12-29T10:57:35.087Z,9.50
2022-12-29T11:00:02.683Z,9.40
2022-12-29T11:02:51.587Z,9.40
2022-12-29T11:05:38.677Z,9.40
2022-12-29T11:08:13.462Z,9.20
2022-12-29T11:10:43.661Z,9.30
2022-12-29T11:13:34.901Z,9.30
2022-12-29T11:16:06.008Z,9.40
2022-12-29T11:18:38.432Z,9.60
2022-12-29T11:21:24.484Z,9.60
2022-12-29T11:24:00.789Z,9.80
2022-12-29T11:26:34.081Z,9.80
2022-12-29T11:29:17.496Z,10.00
2022-12-29T11:31:51.486Z,10.10
2022-12-29T11:34:36.281Z,10.20
2022-12-29T11:37:07.351Z,10.20
2022-12-29T11:40:09.231Z,10.10
2022-12-29T11:42:42.886Z,10.10
2022-12-29T11:45:27.525Z,9.90
2022-12-29T11:47:59.422Z,9.90
2022-12-29T11:50:30.729Z,9.90
2022-12-29T11:53:34.934Z,9.80
2022-12-29T11:56:07.028Z,9.90
2022-12-29T11:58:37.458Z,9.90
2022-12-29T12:01:35.703Z,9.90
2022-12-29T12:04:08.212Z,9.90
2022-12-29T12:06:41.848Z,9.70
2022-12-29T12:09:28.550Z,9.70
2022-12-29T12:11:57.754Z,9.70
2022-12-29T12:14:39.494Z,9.70
2022-12-29T12:17:47.751Z,9.70
2022-12-29T12:20:39.204Z,9.70
2022-12-29T12:23:43.911Z,9.80
2022-12-29T12:26:18.792Z,9.80
2022-12-29T12:29:00.616Z,9.80
2022-12-29T12:31:48.902Z,9.80
2022-12-29T12:34:31.299Z,9.80
2022-12-29T12:37:01.434Z,9.90
2022-12-29T12:40:08.494Z,9.90
2022-12-29T12:42:44.326Z,10.00
2022-12-29T12:45:37.479Z,9.90
2022-12-29T12:48:19.602Z,9.90
2022-12-29T12:51:12.990Z,9.90
2022-12-29T12:53:43.108Z,9.90
2022-12-29T12:56:20.869Z,9.90
2022-12-29T12:59:09.462Z,9.90
2022-12-29T13:01:40.415Z,9.90
2022-12-29T13:04:37.710Z,9.90
2022-12-29T13:07:35.383Z,9.90
2022-12-29T13:10:28.473Z,9.90
2022-12-29T13:13:40.718Z,9.90
2022-12-29T13:16:28.706Z,9.90
2022-12-29T13:19:13.861Z,9.90
2022-12-29T13:22:06.606Z,9.90
2022-12-29T13:24:48.611Z,9.80
2022-12-29T13:27:38.147Z,9.90
2022-12-29T13:30:16.719Z,9.90
2022-12-29T13:32:43.807Z,9.80
2022-12-29T13:35:17.077Z,9.90
2022-12-29T13:38:13.732Z,9.90
2022-12-29T13:40:46.151Z,9.90
2022-12-29T13:43:15.381Z,9.80
2022-12-29T13:45:44.698Z,9.80
2022-12-29T13:48:21.072Z,9.80
2022-12-29T13:50:54.538Z,9.70
2022-12-29T13:53:53.701Z,9.70
2022-12-29T13:56:35.698Z,9.70
2022-12-29T13:59:10.712Z,9.60
2022-12-29T14:01:49.449Z,9.60
2022-12-29T14:04:25.671Z,9.60
2022-12-29T14:07:13.094Z,9.60
2022-12-29T14:09:49.885Z,9.60
2022-12-29T14:12:40.326Z,9.60
2022-12-29T14:15:10.193Z,9.60
2022-12-29T14:17:44.806Z,9.50
2022-12-29T14:20:24.403Z,9.40
2022-12-29T14:23:16.755Z,9.30
2022-12-29T14:25:57.483Z,9.20
2022-12-29T14:28:29.525Z,9.20
2022-12-29T14:31:01.529Z,9.20
2022-12-29T14:33:30.694Z,9.20
2022-12-29T14:36:18.399Z,9.10
2022-12-29T14:38:47.286Z,9.10
2022-12-29T14:41:30.041Z,9.10
2022-12-29T14:44:11.588Z,9.10
2022-12-29T14:46:59.784Z,9.00
2022-12-29T14:49:32.365Z,9.00
2022-12-29T14:52:26.857Z,9.00
2022-12-29T14:55:01.473Z,9.10
2022-12-29T14:57:34.061Z,9.10
2022-12-29T15:00:10.059Z,9.10
2022-12-29T15:02:44.866Z,9.10
2022-12-29T15:05:28.586Z,9.10
2022-12-29T15:07:57.947Z,9.10
2022-12-29T15:10:28.223Z,9.10
2022-12-29T15:12:56.424Z,9.10
2022-12-29T15:15:26.880Z,9.10
2022-12-29T15:17:54.537Z,9.10
2022-12-29T15:20:30.999Z,9.10
2022-12-29T15:23:12.848Z,9.10
2022-12-29T15:25:51.844Z,9.10
2022-12-29T15:28:21.728Z,9.10
2022-12-29T15:31:02.399Z,9.10
2022-12-29T15:33:29.704Z,9.10
2022-12-29T15:36:03.067Z,9.10
2022-12-29T15:38:38.559Z,9.10
2022-12-29T15:41:26.707Z,9.10
2022-12-29T15:43:59.813Z,9.10
2022-12-29T15:46:30.596Z,9.10
2022-12-29T15:48:58.242Z,9.10
2022-12-29T15:51:38.729Z,9.10
2022-12-29T15:54:06.998Z,9.10
2022-12-29T15:56:34.737Z,9.00
2022-12-29T15:59:02.311Z,9.00
2022-12-29T16:01:33.048Z,9.00
2022-12-29T16:04:03.909Z,8.90
2022-12-29T16:06:35.387Z,8.90
2022-12-29T16:09:08.186Z,8.80
2022-12-29T16:11:38.845Z,8.80
2022-12-29T16:14:18.796Z,8.80
2022-12-29T16:16:48.797Z,8.80
2022-12-29T16:19:38.573Z,8.80
2022-12-29T16:22:13.351Z,8.80
2022-12-29T16:24:41.509Z,8.80
2022-12-29T16:27:28.133Z,8.70
2022-12-29T16:29:56.517Z,8.70
2022-12-29T16:32:30.487Z,8.50
2022-12-29T16:35:28.577Z,8.50
2022-12-29T16:38:19.101Z,8.60
2022-12-29T16:40:56.116Z,8.60
2022-12-29T16:43:32.650Z,8.60
2022-12-29T16:46:00.154Z,8.50
2022-12-29T16:48:29.488Z,8.40
2022-12-29T16:51:18.067Z,8.30
2022-12-29T16:53:54.550Z,8.20
2022-12-29T16:56:26.460Z,8.20
2022-12-29T16:59:04.286Z,8.20
2022-12-29T17:01:32.063Z,8.20
2022-12-29T17:04:05.563Z,8.30
2022-12-29T17:06:33.319Z,8.40
2022-12-29T17:09:00.999Z,8.40
2022-12-29T17:11:58.452Z,8.40
2022-12-29T17:14:40.508Z,8.40
2022-12-29T17:17:35.512Z,8.40
2022-12-29T17:20:24.748Z,8.40
2022-12-29T17:22:55.551Z,8.40
2022-12-29T17:25:36.430Z,8.50
2022-12-29T17:28:24.951Z,8.50
2022-12-29T17:30:54.825Z,8.50
2022-12-29T17:33:22.114Z,8.60
2022-12-29T17:35:55.151Z,8.60
2022-12-29T17:38:30.284Z,8.60
2022-12-29T17:40:58.892Z,8.60
2022-12-29T17:43:29.054Z,8.60
2022-12-29T17:46:02.203Z,8.60
2022-12-29T17:48:29.372Z,8.60
2022-12-29T17:50:57.994Z,8.70
2022-12-29T17:53:29.476Z,8.70
2022-12-29T17:55:57.175Z,8.70
2022-12-29T17:58:26.986Z,8.70
2022-12-29T18:00:59.746Z,8.70
2022-12-29T18:03:35.266Z,8.60
2022-12-29T18:06:08.069Z,8.70
2022-12-29T18:08:35.661Z,8.60
2022-12-29T18:11:04.166Z,8.60
2022-12-29T18:13:43.959Z,8.60
2022-12-29T18:16:14.738Z,8.60
2022-12-29T18:18:42.124Z,8.50
2022-12-29T18:21:18.821Z,8.40
2022-12-29T18:23:46.864Z,8.30
2022-12-29T18:26:25.629Z,8.30
2022-12-29T18:28:55.987Z,8.20
2022-12-29T18:31:26.397Z,8.10
2022-12-29T18:33:54.935Z,8.00
2022-12-29T18:36:23.245Z,8.00
2022-12-29T18:38:52.077Z,8.00
2022-12-29T18:41:31.453Z,8.00
2022-12-29T18:43:59.487Z,7.90
2022-12-29T18:46:27.328Z,7.90
2022-12-29T18:48:54.846Z,7.80
2022-12-29T18:51:24.393Z,7.80
2022-12-29T18:53:55.307Z,7.80
2022-12-29T18:56:24.081Z,7.90
2022-12-29T18:58:53.426Z,7.90
2022-12-29T19:01:23.917Z,7.90
2022-12-29T19:03:53.236Z,7.90
2022-12-29T19:06:21.414Z,8.00
2022-12-29T19:08:48.710Z,8.00
2022-12-29T19:11:17.831Z,8.00
2022-12-29T19:13:45.009Z,8.10
2022-12-29T19:16:20.493Z,8.20
2022-12-29T19:18:58.597Z,8.20
2022-12-29T19:21:36.646Z,8.40
2022-12-29T19:24:04.316Z,8.40
2022-12-29T19:26:35.658Z,8.50
2022-12-29T19:29:04.273Z,8.50
2022-12-29T19:31:31.794Z,8.60
2022-12-29T19:34:00.340Z,8.60
2022-12-29T19:36:27.907Z,8.60
2022-12-29T19:38:55.890Z,8.70
2022-12-29T19:41:23.911Z,8.70
2022-12-29T19:43:51.317Z,8.70
2022-12-29T19:46:20.441Z,8.80
2022-12-29T19:48:47.699Z,8.80
2022-12-29T19:51:17.401Z,8.80
2022-12-29T19:53:46.053Z,8.80
2022-12-29T19:56:14.651Z,8.70
2022-12-29T19:58:46.944Z,8.70
2022-12-29T20:01:20.937Z,8.70
2022-12-29T20:03:49.075Z,8.70
2022-12-29T20:06:18.290Z,8.50
2022-12-29T20:08:45.661Z,8.40
2022-12-29T20:11:16.347Z,8.30
2022-12-29T20:13:44.059Z,8.20
2022-12-29T20:16:19.846Z,8.20
2022-12-29T20:18:48.458Z,8.20
2022-12-29T20:21:21.594Z,8.20
2022-12-29T20:23:50.942Z,8.20
2022-12-29T20:26:25.613Z,8.30
2022-12-29T20:28:53.703Z,8.30
2022-12-29T20:31:34.491Z,8.30
2022-12-29T20:34:02.742Z,8.40
2022-12-29T20:36:33.456Z,8.40
2022-12-29T20:39:04.247Z,8.40
2022-12-29T20:41:31.754Z,8.40
2022-12-29T20:43:59.386Z,8.40
2022-12-29T20:46:35.065Z,8.30
2022-12-29T20:49:08.041Z,8.20
2022-12-29T20:52:04.578Z,8.20
2022-12-29T20:54:23.468Z,8.10
2022-12-29T20:56:52.367Z,8.00
2022-12-29T20:59:28.403Z,7.90
2022-12-29T21:01:57.367Z,7.90
2022-12-29T21:04:25.263Z,7.90
2022-12-29T21:06:52.900Z,7.70
2022-12-29T21:09:20.418Z,7.60
2022-12-29T21:11:48.915Z,7.60
2022-12-29T21:14:16.176Z,7.60
2022-12-29T21:16:43.864Z,7.60
2022-12-29T21:19:11.236Z,7.70
2022-12-29T21:21:38.716Z,7.60
2022-12-29T21:24:07.097Z,7.50
2022-12-29T21:26:34.531Z,7.30
2022-12-29T21:29:03.459Z,7.30
2022-12-29T21:31:33.597Z,7.10
2022-12-29T21:34:01.722Z,7.00
2022-12-29T21:36:30.268Z,6.90
2022-12-29T21:39:00.363Z,7.00
2022-12-29T21:41:27.843Z,7.00
2022-12-29T21:44:13.493Z,7.10
2022-12-29T21:46:42.121Z,7.20
2022-12-29T21:49:09.995Z,7.20
2022-12-29T21:51:54.089Z,7.10
2022-12-29T21:54:47.982Z,7.00
2022-12-29T21:57:37.312Z,6.90
2022-12-29T22:00:25.212Z,6.80
2022-12-29T22:03:16.702Z,6.70
2022-12-29T22:06:09.056Z,6.60
2022-12-29T22:08:55.891Z,6.70
2022-12-29T22:11:41.861Z,6.70
2022-12-29T22:14:09.738Z,6.70
2022-12-29T22:16:36.942Z,6.60
2022-12-29T22:19:05.047Z,6.60
2022-12-29T22:21:32.144Z,6.80
2022-12-29T22:24:00.778Z,6.90
2022-12-29T22:26:28.083Z,7.00
2022-12-29T22:28:55.809Z,7.10
2022-12-29T22:31:29.019Z,7.10
2022-12-29T22:33:57.857Z,7.20
2022-12-29T22:36:25.122Z,7.10
2022-12-29T22:38:52.768Z,7.10
2022-12-29T22:41:20.482Z,7.00
2022-12-29T22:43:48.058Z,7.10
2022-12-29T22:46:15.390Z,7.10
2022-12-29T22:48:43.397Z,7.10
2022-12-29T22:51:10.679Z,7.00
2022-12-29T22:53:38.151Z,6.90
2022-12-29T22:56:08.281Z,6.80
2022-12-29T22:58:35.732Z,6.70
2022-12-29T23:01:06.440Z,6.70
2022-12-29T23:03:34.104Z,6.60
2022-12-29T23:06:04.033Z,6.50
2022-12-29T23:08:34.539Z,6.50
2022-12-29T23:11:02.431Z,6.40
2022-12-29T23:13:30.030Z,6.30
2022-12-29T23:15:57.200Z,6.20
2022-12-29T23:18:24.924Z,6.20
2022-12-29T23:20:52.612Z,6.10
2022-12-29T23:23:46.469Z,6.10
2022-12-29T23:26:24.742Z,6.10
2022-12-29T23:28:59.530Z,6.00
2022-12-29T23:31:27.996Z,6.00
2022-12-29T23:33:56.319Z,6.00
2022-12-29T23:36:23.835Z,5.90
2022-12-29T23:38:51.469Z,5.90
2022-12-29T23:41:18.872Z,5.80
2022-12-29T23:43:47.277Z,5.80
2022-12-29T23:46:17.429Z,5.80
2022-12-29T23:48:45.426Z,5.70
2022-12-29T23:51:12.751Z,5.60
2022-12-29T23:53:42.221Z,5.50
2022-12-29T23:56:12.862Z,5.50
2022-12-29T23:58:40.361Z,5.40
